createdAt,value
2019-01-23T00:00:54.218Z,42.50
2019-01-23T00:03:24.033Z,45.10
2019-01-23T00:05:53.807Z,42.15
2019-01-23T00:08:23.486Z,42.60
2019-01-23T00:10:53.278Z,43.23
2019-01-23T00:13:23.068Z,44.77
2019-01-23T00:15:52.771Z,47.38
2019-01-23T00:18:22.513Z,42.95
2019-01-23T00:20:52.306Z,42.43
2019-01-23T00:23:22.145Z,41.55
2019-01-23T00:25:51.915Z,43.25
2019-01-23T00:28:21.751Z,41.70
2019-01-23T00:30:51.566Z,42.48
2019-01-23T00:33:21.235Z,41.68
2019-01-23T00:35:51.007Z,43.98
2019-01-23T00:38:20.782Z,36.30
2019-01-23T00:40:50.555Z,42.13
2019-01-23T00:43:20.262Z,43.08
2019-01-23T00:45:49.939Z,38.95
2019-01-23T00:48:19.729Z,43.15
2019-01-23T00:50:49.464Z,40.85
2019-01-23T00:53:19.150Z,36.65
2019-01-23T00:55:48.952Z,39.78
2019-01-23T00:58:18.703Z,37.73
2019-01-23T01:00:48.541Z,39.35
2019-01-23T01:03:18.257Z,43.33
2019-01-23T01:05:48.148Z,39.85
2019-01-23T01:08:17.892Z,39.50
2019-01-23T01:10:47.791Z,41.25
2019-01-23T01:13:17.573Z,39.55
2019-01-23T01:15:47.250Z,43.40
2019-01-23T01:18:17.039Z,37.33
2019-01-23T01:20:46.757Z,39.65
2019-01-23T01:23:16.524Z,39.03
2019-01-23T01:25:46.216Z,41.05
2019-01-23T01:28:16.003Z,40.58
2019-01-23T01:30:45.762Z,42.30
2019-01-23T01:33:15.459Z,40.80
2019-01-23T01:35:45.218Z,41.45
2019-01-23T01:38:15.080Z,38.33
2019-01-23T01:40:44.851Z,42.50
2019-01-23T01:43:14.536Z,44.10
2019-01-23T01:45:44.408Z,45.52
2019-01-23T01:48:14.143Z,40.48
2019-01-23T01:50:44.054Z,41.05
2019-01-23T01:53:13.726Z,45.33
2019-01-23T01:55:43.571Z,40.15
2019-01-23T01:58:13.272Z,41.55
2019-01-23T02:00:43.036Z,39.92
2019-01-23T02:03:15.499Z,39.00
2019-01-23T02:05:44.281Z,41.05
2019-01-23T02:08:13.951Z,40.83
2019-01-23T02:10:43.623Z,42.13
2019-01-23T02:13:13.416Z,43.30
2019-01-23T02:15:43.179Z,43.00
2019-01-23T02:18:13.018Z,42.85
2019-01-23T02:20:42.727Z,43.17
2019-01-23T02:23:12.448Z,39.27
2019-01-23T02:25:42.257Z,41.80
2019-01-23T02:28:12.043Z,40.92
2019-01-23T02:30:41.885Z,42.27
2019-01-23T02:33:11.593Z,38.70
2019-01-23T02:35:41.261Z,41.53
2019-01-23T02:38:10.975Z,45.85
2019-01-23T02:40:40.744Z,43.83
2019-01-23T02:43:10.405Z,39.40
2019-01-23T02:45:40.128Z,39.88
2019-01-23T02:48:09.874Z,45.75
2019-01-23T02:50:39.613Z,40.80
2019-01-23T02:53:09.399Z,41.98
2019-01-23T02:55:39.364Z,40.03
2019-01-23T02:58:09.289Z,41.05
2019-01-23T03:00:39.008Z,43.75
2019-01-23T03:03:08.908Z,36.65
2019-01-23T03:05:38.661Z,41.63
2019-01-23T03:08:08.597Z,37.17
2019-01-23T03:10:38.412Z,37.17
2019-01-23T03:13:08.178Z,35.17
2019-01-23T03:15:37.881Z,41.08
2019-01-23T03:18:07.788Z,39.78
2019-01-23T03:20:37.545Z,38.55
2019-01-23T03:23:07.276Z,36.05
2019-01-23T03:25:37.113Z,39.30
2019-01-23T03:28:06.906Z,39.33
2019-01-23T03:30:36.661Z,36.45
2019-01-23T03:33:06.423Z,37.70
2019-01-23T03:35:36.202Z,37.35
2019-01-23T03:38:06.224Z,35.88
2019-01-23T03:40:35.989Z,36.35
2019-01-23T03:43:06.091Z,32.03
2019-01-23T03:45:35.819Z,36.75
2019-01-23T03:48:05.583Z,34.15
2019-01-23T03:50:35.278Z,38.65
2019-01-23T03:53:05.363Z,33.40
2019-01-23T03:55:35.500Z,35.45
2019-01-23T03:58:05.482Z,38.53
2019-01-23T04:00:35.234Z,37.40
2019-01-23T04:03:05.685Z,34.88
2019-01-23T04:05:35.456Z,35.50
2019-01-23T04:08:05.523Z,40.03
2019-01-23T04:10:35.200Z,37.75
2019-01-23T04:13:05.031Z,33.48
2019-01-23T04:15:34.768Z,34.48
2019-01-23T04:18:04.519Z,37.58
2019-01-23T04:20:34.299Z,37.40
2019-01-23T04:23:04.076Z,37.05
2019-01-23T04:25:33.735Z,38.30
2019-01-23T04:28:03.482Z,35.13
2019-01-23T04:30:33.193Z,34.13
2019-01-23T04:33:02.844Z,34.83
2019-01-23T04:35:32.579Z,35.73
2019-01-23T04:38:02.296Z,39.92
2019-01-23T04:40:32.071Z,36.58
2019-01-23T04:43:01.748Z,34.90
2019-01-23T04:45:31.454Z,40.78
2019-01-23T04:48:01.097Z,36.98
2019-01-23T04:50:31.969Z,36.08
2019-01-23T04:53:06.309Z,39.15
2019-01-23T04:55:37.474Z,37.58
2019-01-23T04:58:07.288Z,38.88
2019-01-23T05:00:37.036Z,38.65
2019-01-23T05:03:06.829Z,35.43
2019-01-23T05:05:36.655Z,35.25
2019-01-23T05:08:06.370Z,35.43
2019-01-23T05:10:36.103Z,36.83
2019-01-23T05:13:06.021Z,35.25
2019-01-23T05:15:35.798Z,37.45
2019-01-23T05:18:05.581Z,39.48
2019-01-23T05:20:35.285Z,40.78
2019-01-23T05:23:05.307Z,36.85
2019-01-23T05:25:35.146Z,34.27
2019-01-23T05:28:05.183Z,36.58
2019-01-23T05:30:35.011Z,36.70
2019-01-23T05:33:05.858Z,36.15
2019-01-23T05:35:35.606Z,37.15
2019-01-23T05:38:05.686Z,41.28
2019-01-23T05:40:35.492Z,36.33
2019-01-23T05:43:05.407Z,34.55
2019-01-23T05:45:35.190Z,38.00
2019-01-23T05:48:05.386Z,35.90
2019-01-23T05:50:35.460Z,36.88
2019-01-23T05:53:05.318Z,39.10
2019-01-23T05:55:34.978Z,41.75
2019-01-23T05:58:04.892Z,36.77
2019-01-23T06:00:34.654Z,38.83
2019-01-23T06:03:04.433Z,40.43
2019-01-23T06:05:34.386Z,39.65
2019-01-23T06:08:04.077Z,37.95
2019-01-23T06:10:33.831Z,38.33
2019-01-23T06:13:03.547Z,33.42
2019-01-23T06:15:33.338Z,39.70
2019-01-23T06:18:03.092Z,38.92
2019-01-23T06:20:32.822Z,37.38
2019-01-23T06:23:02.614Z,38.80
2019-01-23T06:25:32.375Z,35.05
2019-01-23T06:28:02.103Z,36.03
2019-01-23T06:30:31.791Z,36.83
2019-01-23T06:33:01.508Z,33.33
2019-01-23T06:35:31.270Z,34.83
2019-01-23T06:38:01.008Z,36.85
2019-01-23T06:40:31.079Z,37.67
2019-01-23T06:43:00.854Z,39.78
2019-01-23T06:45:30.568Z,39.95
2019-01-23T06:48:00.298Z,39.40
2019-01-23T06:50:30.146Z,36.25
2019-01-23T06:52:59.814Z,34.50
2019-01-23T06:55:29.587Z,42.17
2019-01-23T06:57:59.234Z,36.20
2019-01-23T07:00:29.154Z,38.85
2019-01-23T07:02:59.060Z,37.70
2019-01-23T07:05:28.845Z,35.95
2019-01-23T07:07:58.552Z,40.43
2019-01-23T07:10:28.589Z,37.38
2019-01-23T07:12:58.300Z,37.10
2019-01-23T07:15:28.018Z,38.45
2019-01-23T07:17:57.727Z,38.13
2019-01-23T07:20:28.023Z,38.67
2019-01-23T07:22:57.798Z,34.50
2019-01-23T07:25:27.686Z,38.42
2019-01-23T07:27:57.549Z,36.65
2019-01-23T07:30:33.988Z,36.03
2019-01-23T07:33:03.807Z,42.33
2019-01-23T07:35:33.535Z,39.98
2019-01-23T07:38:03.349Z,38.48
2019-01-23T07:40:33.270Z,38.28
2019-01-23T07:43:03.085Z,38.75
2019-01-23T07:45:32.903Z,38.00
2019-01-23T07:48:02.723Z,35.38
2019-01-23T07:50:32.474Z,37.93
2019-01-23T07:53:02.253Z,36.50
2019-01-23T07:55:32.005Z,42.83
2019-01-23T07:58:01.675Z,40.20
2019-01-23T08:00:31.803Z,37.73
2019-01-23T08:03:01.715Z,40.73
2019-01-23T08:05:32.561Z,38.88
2019-01-23T08:08:02.336Z,38.08
2019-01-23T08:10:32.126Z,39.00
2019-01-23T08:13:02.129Z,42.10
2019-01-23T08:15:34.510Z,37.60
2019-01-23T08:18:04.529Z,39.78
2019-01-23T08:20:34.311Z,44.13
2019-01-23T08:23:04.234Z,39.60
2019-01-23T08:25:34.377Z,44.30
2019-01-23T08:28:04.663Z,38.60
2019-01-23T08:30:38.641Z,42.40
2019-01-23T08:33:06.258Z,37.90
2019-01-23T08:35:36.212Z,39.55
2019-01-23T08:38:06.221Z,40.05
2019-01-23T08:40:35.975Z,46.08
2019-01-23T08:43:05.987Z,38.88
2019-01-23T08:45:36.248Z,42.17
2019-01-23T08:48:06.038Z,40.03
2019-01-23T08:50:39.721Z,41.33
2019-01-23T08:53:09.533Z,39.20
2019-01-23T08:55:39.278Z,41.73
2019-01-23T08:58:09.231Z,41.48
2019-01-23T09:00:45.576Z,43.95
2019-01-23T09:03:10.458Z,45.80
2019-01-23T09:05:40.176Z,44.88
2019-01-23T09:08:09.959Z,42.88
2019-01-23T09:10:39.774Z,44.23
2019-01-23T09:13:09.553Z,44.88
2019-01-23T09:15:39.277Z,44.88
2019-01-23T09:18:09.109Z,40.35
2019-01-23T09:20:38.784Z,43.98
2019-01-23T09:23:08.528Z,40.92
2019-01-23T09:25:38.229Z,42.67
2019-01-23T09:28:07.879Z,43.35
2019-01-23T09:30:42.484Z,47.00
2019-01-23T09:33:43.820Z,46.53
2019-01-23T09:37:00.405Z,43.02
2019-01-23T09:39:40.434Z,43.48
2019-01-23T09:42:42.272Z,44.98
2019-01-23T09:45:39.264Z,41.08
2019-01-23T09:48:40.620Z,43.23
2019-01-23T09:51:48.212Z,43.05
2019-01-23T09:54:17.932Z,44.60
2019-01-23T09:56:47.910Z,42.20
2019-01-23T09:59:17.572Z,46.80
2019-01-23T10:01:47.336Z,44.00
2019-01-23T10:04:17.006Z,46.20
2019-01-23T10:06:46.703Z,40.63
2019-01-23T10:09:16.487Z,46.55
2019-01-23T10:11:46.207Z,45.00
2019-01-23T10:14:15.916Z,44.33
2019-01-23T10:16:45.591Z,45.43
2019-01-23T10:19:15.285Z,42.50
2019-01-23T10:21:45.105Z,42.20
2019-01-23T10:24:14.814Z,42.95
2019-01-23T10:26:44.571Z,37.73
2019-01-23T10:29:14.342Z,45.75
2019-01-23T10:31:44.159Z,43.05
2019-01-23T10:34:13.861Z,42.35
2019-01-23T10:36:43.904Z,39.42
2019-01-23T10:39:13.615Z,42.93
2019-01-23T10:41:43.365Z,44.15
2019-01-23T10:44:13.345Z,44.65
2019-01-23T10:46:43.138Z,46.77
2019-01-23T10:49:12.947Z,42.83
2019-01-23T10:51:42.755Z,48.70
2019-01-23T10:54:12.604Z,39.10
2019-01-23T10:56:42.386Z,45.08
2019-01-23T10:59:12.165Z,47.48
2019-01-23T11:01:42.004Z,42.45
2019-01-23T11:04:12.080Z,39.03
2019-01-23T11:06:41.876Z,40.28
2019-01-23T11:09:11.850Z,42.73
2019-01-23T11:11:41.632Z,45.05
2019-01-23T11:14:11.295Z,44.65
2019-01-23T11:16:41.096Z,42.23
2019-01-23T11:19:10.951Z,40.40
2019-01-23T11:21:40.687Z,44.85
2019-01-23T11:24:10.445Z,42.65
2019-01-23T11:26:40.213Z,43.45
2019-01-23T11:29:09.918Z,41.95
2019-01-23T11:31:39.724Z,41.55
2019-01-23T11:34:09.396Z,42.58
2019-01-23T11:36:39.277Z,43.00
2019-01-23T11:39:10.160Z,42.40
2019-01-23T11:41:39.972Z,38.40
2019-01-23T11:44:10.993Z,40.73
2019-01-23T11:46:41.143Z,41.37
2019-01-23T11:49:11.201Z,48.55
2019-01-23T11:51:41.043Z,43.55
2019-01-23T11:54:10.740Z,45.70
2019-01-23T11:56:40.510Z,44.53
2019-01-23T11:59:10.265Z,46.35
2019-01-23T12:01:40.199Z,43.48
2019-01-23T12:04:10.139Z,45.28
2019-01-23T12:06:39.887Z,47.35
2019-01-23T12:09:10.471Z,47.83
2019-01-23T12:11:40.240Z,44.83
2019-01-23T12:14:09.993Z,42.62
2019-01-23T12:16:39.801Z,49.65
2019-01-23T12:19:09.542Z,47.88
2019-01-23T12:21:39.218Z,47.93
2019-01-23T12:24:09.029Z,45.33
2019-01-23T12:26:38.851Z,46.75
2019-01-23T12:29:08.889Z,50.48
2019-01-23T12:31:38.608Z,45.43
2019-01-23T12:34:08.468Z,52.67
2019-01-23T12:36:38.222Z,49.98
2019-01-23T12:39:09.900Z,47.33
2019-01-23T12:41:39.717Z,46.35
2019-01-23T12:44:09.672Z,46.95
2019-01-23T12:46:39.377Z,45.20
2019-01-23T12:49:09.042Z,49.38
2019-01-23T12:51:38.926Z,45.15
2019-01-23T12:54:08.645Z,47.73
2019-01-23T12:56:38.433Z,49.85
2019-01-23T12:59:08.283Z,48.00
2019-01-23T13:01:41.944Z,49.03
2019-01-23T13:04:09.575Z,50.60
2019-01-23T13:06:39.285Z,47.08
2019-01-23T13:09:10.184Z,48.83
2019-01-23T13:11:40.137Z,49.53
2019-01-23T13:14:09.964Z,44.25
2019-01-23T13:16:39.680Z,43.63
2019-01-23T13:19:09.449Z,48.73
2019-01-23T13:21:39.118Z,47.58
2019-01-23T13:24:09.062Z,46.53
2019-01-23T13:26:38.812Z,41.85
2019-01-23T13:29:08.651Z,46.42
2019-01-23T13:31:38.404Z,44.50
2019-01-23T13:34:08.186Z,45.03
2019-01-23T13:36:37.868Z,41.98
2019-01-23T13:39:09.621Z,35.65
2019-01-23T13:41:39.354Z,39.50
2019-01-23T13:44:09.113Z,39.75
2019-01-23T13:46:38.871Z,37.53
2019-01-23T13:49:08.561Z,39.75
2019-01-23T13:51:38.370Z,41.20
2019-01-23T13:54:08.128Z,32.80
2019-01-23T13:56:37.775Z,35.17
2019-01-23T13:59:07.545Z,31.65
2019-01-23T14:01:37.210Z,32.75
2019-01-23T14:04:07.147Z,27.25
2019-01-23T14:06:36.880Z,33.48
2019-01-23T14:09:08.580Z,31.55
2019-01-23T14:11:38.284Z,30.27
2019-01-23T14:14:08.120Z,34.70
2019-01-23T14:16:37.865Z,38.13
2019-01-23T14:19:07.775Z,35.48
2019-01-23T14:21:37.473Z,30.35
2019-01-23T14:24:07.350Z,34.75
2019-01-23T14:26:37.138Z,32.65
2019-01-23T14:29:06.900Z,28.62
2019-01-23T14:31:36.735Z,31.50
2019-01-23T14:34:06.620Z,30.23
2019-01-23T14:36:36.385Z,30.32
2019-01-23T14:39:08.303Z,30.02
2019-01-23T14:41:37.985Z,29.05
2019-01-23T14:44:07.695Z,27.60
2019-01-23T14:46:37.353Z,27.02
2019-01-23T14:49:07.036Z,32.13
2019-01-23T14:51:36.809Z,34.48
2019-01-23T14:54:06.716Z,34.13
2019-01-23T14:56:36.378Z,32.93
2019-01-23T14:59:06.257Z,37.08
2019-01-23T15:01:35.920Z,31.52
2019-01-23T15:04:05.803Z,33.90
2019-01-23T15:06:35.447Z,34.78
2019-01-23T15:09:07.832Z,38.10
2019-01-23T15:11:37.496Z,37.93
2019-01-23T15:14:07.770Z,35.80
2019-01-23T15:16:37.520Z,35.58
2019-01-23T15:19:07.375Z,36.77
2019-01-23T15:21:37.030Z,39.92
2019-01-23T15:24:06.782Z,38.55
2019-01-23T15:26:36.423Z,39.00
2019-01-23T15:29:06.110Z,37.40
2019-01-23T15:31:36.173Z,39.15
2019-01-23T15:34:06.206Z,41.75
2019-01-23T15:36:35.933Z,42.83
2019-01-23T15:39:08.327Z,45.50
2019-01-23T15:41:38.030Z,44.70
2019-01-23T15:44:07.757Z,41.65
2019-01-23T15:46:37.514Z,44.25
2019-01-23T15:49:07.245Z,42.45
2019-01-23T15:51:36.927Z,40.70
2019-01-23T15:54:06.755Z,48.05
2019-01-23T15:56:36.441Z,44.58
2019-01-23T15:59:06.097Z,45.50
2019-01-23T16:01:36.001Z,44.53
2019-01-23T16:04:05.774Z,42.30
2019-01-23T16:06:35.476Z,46.83
2019-01-23T16:09:06.538Z,44.53
2019-01-23T16:11:36.663Z,46.35
2019-01-23T16:14:06.471Z,44.48
2019-01-23T16:16:36.192Z,40.50
2019-01-23T16:19:06.137Z,42.95
2019-01-23T16:21:35.802Z,42.80
2019-01-23T16:24:07.428Z,42.03
2019-01-23T16:26:37.076Z,38.58
2019-01-23T16:29:06.769Z,43.80
2019-01-23T16:31:36.519Z,46.30
2019-01-23T16:34:06.526Z,41.45
2019-01-23T16:36:36.325Z,45.98
2019-01-23T16:39:08.459Z,45.98
2019-01-23T16:41:38.234Z,47.27
2019-01-23T16:44:08.144Z,42.93
2019-01-23T16:46:37.899Z,45.08
2019-01-23T16:49:07.852Z,38.90
2019-01-23T16:51:37.667Z,47.60
2019-01-23T16:54:07.390Z,47.93
2019-01-23T16:56:37.388Z,41.58
2019-01-23T16:59:07.341Z,50.05
2019-01-23T17:01:37.242Z,45.25
2019-01-23T17:04:07.095Z,45.12
2019-01-23T17:06:37.003Z,45.65
2019-01-23T17:09:08.780Z,44.20
2019-01-23T17:11:38.558Z,46.37
2019-01-23T17:14:08.526Z,44.25
2019-01-23T17:16:38.333Z,49.05
2019-01-23T17:19:08.072Z,47.75
2019-01-23T17:21:37.762Z,46.75
2019-01-23T17:24:07.663Z,48.13
2019-01-23T17:26:37.405Z,47.38
2019-01-23T17:29:07.105Z,49.40
2019-01-23T17:31:36.827Z,48.40
2019-01-23T17:34:06.823Z,47.13
2019-01-23T17:36:36.617Z,43.98
2019-01-23T17:39:10.202Z,49.50
2019-01-23T17:41:40.007Z,48.30
2019-01-23T17:44:09.966Z,41.23
2019-01-23T17:46:40.351Z,52.70
2019-01-23T17:49:10.166Z,55.98
2019-01-23T17:51:39.892Z,50.10
2019-01-23T17:54:09.757Z,50.20
2019-01-23T17:56:39.532Z,49.18
2019-01-23T17:59:09.445Z,47.05
2019-01-23T18:01:39.225Z,53.60
2019-01-23T18:04:09.008Z,50.63
2019-01-23T18:06:38.792Z,47.43
2019-01-23T18:09:11.346Z,47.53
2019-01-23T18:11:41.110Z,50.33
2019-01-23T18:14:10.955Z,53.30
2019-01-23T18:16:40.624Z,54.42
2019-01-23T18:19:10.360Z,51.73
2019-01-23T18:21:40.251Z,52.33
2019-01-23T18:24:09.969Z,52.35
2019-01-23T18:26:39.741Z,54.83
2019-01-23T18:29:09.569Z,51.80
2019-01-23T18:31:39.288Z,51.60
2019-01-23T18:34:39.029Z,52.08
2019-01-23T18:37:19.081Z,54.90
2019-01-23T18:40:26.938Z,47.53
2019-01-23T18:43:21.882Z,48.92
2019-01-23T18:46:01.678Z,48.17
2019-01-23T18:49:03.933Z,47.43
2019-01-23T18:51:34.030Z,50.67
2019-01-23T18:54:03.785Z,49.48
2019-01-23T18:56:33.747Z,50.63
2019-01-23T18:59:03.638Z,46.70
2019-01-23T19:01:33.290Z,49.00
2019-01-23T19:04:03.138Z,48.73
2019-01-23T19:06:32.807Z,51.48
2019-01-23T19:09:02.482Z,53.17
2019-01-23T19:11:32.342Z,49.63
2019-01-23T19:14:02.137Z,49.23
2019-01-23T19:16:31.890Z,49.38
2019-01-23T19:19:01.698Z,52.35
2019-01-23T19:21:31.466Z,46.83
2019-01-23T19:24:01.196Z,50.05
2019-01-23T19:26:30.976Z,51.42
2019-01-23T19:29:00.738Z,55.70
2019-01-23T19:31:30.462Z,50.20
2019-01-23T19:34:00.235Z,50.63
2019-01-23T19:36:30.287Z,47.48
2019-01-23T19:39:00.180Z,49.67
2019-01-23T19:41:29.909Z,52.20
2019-01-23T19:43:59.633Z,52.15
2019-01-23T19:46:29.283Z,49.20
2019-01-23T19:48:59.039Z,54.18
2019-01-23T19:51:28.926Z,46.95
2019-01-23T19:53:58.819Z,53.60
2019-01-23T19:56:28.917Z,49.55
2019-01-23T19:58:58.629Z,52.38
2019-01-23T20:01:28.419Z,54.18
2019-01-23T20:03:58.116Z,49.88
2019-01-23T20:06:28.082Z,47.83
2019-01-23T20:08:57.947Z,51.53
2019-01-23T20:11:27.711Z,50.95
2019-01-23T20:13:57.371Z,48.58
2019-01-23T20:16:27.294Z,54.35
2019-01-23T20:18:57.087Z,55.08
2019-01-23T20:21:26.829Z,54.83
2019-01-23T20:23:56.621Z,53.17
2019-01-23T20:26:26.377Z,57.75
2019-01-23T20:28:56.183Z,49.65
2019-01-23T20:31:26.047Z,52.03
2019-01-23T20:33:55.991Z,51.28
2019-01-23T20:36:25.653Z,44.70
2019-01-23T20:38:55.385Z,50.40
2019-01-23T20:41:25.191Z,49.75
2019-01-23T20:43:54.884Z,48.30
2019-01-23T20:46:24.708Z,51.15
2019-01-23T20:48:54.421Z,56.48
2019-01-23T20:51:24.068Z,54.93
2019-01-23T20:53:53.815Z,52.70
2019-01-23T20:56:23.616Z,54.58
2019-01-23T20:58:53.655Z,50.05
2019-01-23T21:01:23.452Z,49.70
2019-01-23T21:03:53.268Z,52.17
2019-01-23T21:06:23.204Z,53.50
2019-01-23T21:08:52.931Z,46.05
2019-01-23T21:11:22.713Z,52.05
2019-01-23T21:13:52.381Z,51.10
2019-01-23T21:16:22.202Z,51.25
2019-01-23T21:18:52.048Z,51.02
2019-01-23T21:21:21.728Z,49.48
2019-01-23T21:23:51.476Z,46.92
2019-01-23T21:26:21.270Z,52.48
2019-01-23T21:28:50.993Z,52.20
2019-01-23T21:31:20.744Z,48.35
2019-01-23T21:33:50.497Z,51.20
2019-01-23T21:36:20.227Z,50.43
2019-01-23T21:38:49.916Z,46.50
2019-01-23T21:41:19.663Z,52.00
2019-01-23T21:43:49.365Z,48.87
2019-01-23T21:46:19.119Z,47.50
2019-01-23T21:48:48.891Z,51.60
2019-01-23T21:51:18.627Z,46.02
2019-01-23T21:53:48.325Z,46.98
2019-01-23T21:56:18.059Z,52.20
2019-01-23T21:58:47.873Z,42.20
2019-01-23T22:01:17.556Z,48.95
2019-01-23T22:03:49.463Z,50.75
2019-01-23T22:06:18.773Z,47.27
2019-01-23T22:08:48.440Z,47.00
2019-01-23T22:11:18.309Z,48.65
2019-01-23T22:13:48.032Z,47.67
2019-01-23T22:16:17.754Z,51.65
2019-01-23T22:18:47.550Z,48.68
2019-01-23T22:21:17.210Z,51.58
2019-01-23T22:23:46.992Z,51.70
2019-01-23T22:26:16.653Z,48.75
2019-01-23T22:28:46.367Z,44.27
2019-01-23T22:31:16.174Z,49.00
2019-01-23T22:33:45.880Z,47.45
2019-01-23T22:36:15.619Z,48.60
2019-01-23T22:38:45.446Z,49.83
2019-01-23T22:41:15.132Z,51.68
2019-01-23T22:43:44.797Z,52.43
2019-01-23T22:46:14.645Z,52.78
2019-01-23T22:48:44.325Z,50.98
2019-01-23T22:51:14.102Z,52.25
2019-01-23T22:53:43.897Z,47.80
2019-01-23T22:56:13.618Z,50.03
2019-01-23T22:58:43.269Z,48.38
2019-01-23T23:01:17.562Z,53.80
2019-01-23T23:03:47.608Z,51.30
2019-01-23T23:06:17.362Z,51.02
2019-01-23T23:08:47.146Z,55.38
2019-01-23T23:11:16.840Z,54.20
2019-01-23T23:13:46.600Z,61.53
2019-01-23T23:16:16.328Z,54.03
2019-01-23T23:18:46.039Z,50.08
2019-01-23T23:21:15.907Z,52.05
2019-01-23T23:23:45.758Z,57.15
2019-01-23T23:26:15.518Z,48.45
2019-01-23T23:28:45.268Z,53.02
2019-01-23T23:31:14.942Z,52.10
2019-01-23T23:33:44.630Z,51.65
2019-01-23T23:36:14.422Z,54.27
2019-01-23T23:38:44.202Z,51.92
2019-01-23T23:41:13.995Z,53.40
2019-01-23T23:43:43.791Z,51.63
2019-01-23T23:46:13.470Z,53.78
2019-01-23T23:48:43.289Z,57.43
2019-01-23T23:51:13.045Z,47.27
2019-01-23T23:53:42.706Z,49.55
2019-01-23T23:56:12.387Z,49.63
2019-01-23T23:58:42.113Z,50.83
